createdAt,value
2022-10-13T00:01:24.433Z,92.70
2022-10-13T00:04:46.636Z,92.80
2022-10-13T00:08:08.790Z,92.70
2022-10-13T00:11:37.345Z,92.80
2022-10-13T00:14:59.494Z,92.80
2022-10-13T00:18:21.602Z,92.70
2022-10-13T00:21:46.028Z,92.80
2022-10-13T00:25:08.539Z,92.80
2022-10-13T00:28:31.368Z,92.70
2022-10-13T00:31:53.527Z,92.70
2022-10-13T00:35:15.763Z,92.80
2022-10-13T00:38:37.977Z,92.70
2022-10-13T00:42:00.912Z,92.60
2022-10-13T00:45:24.583Z,92.70
2022-10-13T00:48:50.614Z,92.70
2022-10-13T00:52:15.015Z,92.70
2022-10-13T00:55:39.128Z,92.70
2022-10-13T00:59:02.265Z,92.60
2022-10-13T01:02:29.259Z,92.70
2022-10-13T01:05:55.493Z,92.60
2022-10-13T01:09:17.832Z,92.60
2022-10-13T01:12:58.113Z,92.70
2022-10-13T01:16:40.822Z,92.70
2022-10-13T01:20:37.107Z,92.60
2022-10-13T01:24:05.377Z,92.70
2022-10-13T01:27:33.378Z,92.60
2022-10-13T01:31:04.072Z,92.60
2022-10-13T01:34:33.022Z,92.70
2022-10-13T01:38:03.998Z,92.60
2022-10-13T01:41:37.387Z,92.50
2022-10-13T01:45:02.369Z,92.50
2022-10-13T01:48:26.206Z,92.60
2022-10-13T01:51:49.670Z,92.70
2022-10-13T01:55:12.984Z,93.20
2022-10-13T01:58:37.678Z,92.70
2022-10-13T02:02:16.167Z,92.70
2022-10-13T02:05:49.515Z,92.80
2022-10-13T02:09:21.012Z,92.70
2022-10-13T02:12:50.645Z,92.70
2022-10-13T02:16:14.887Z,92.60
2022-10-13T02:19:38.848Z,92.60
2022-10-13T02:23:07.119Z,92.60
2022-10-13T02:26:32.281Z,92.60
2022-10-13T02:29:58.378Z,92.50
2022-10-13T02:33:24.850Z,92.70
2022-10-13T02:36:47.286Z,92.60
2022-10-13T02:40:10.158Z,92.60
2022-10-13T02:43:33.890Z,92.60
2022-10-13T02:46:56.104Z,92.70
2022-10-13T02:50:18.369Z,92.70
2022-10-13T02:53:40.558Z,92.80
2022-10-13T02:57:02.772Z,92.70
2022-10-13T03:00:25.671Z,92.80
2022-10-13T03:03:48.016Z,92.80
2022-10-13T03:07:10.336Z,92.90
2022-10-13T03:10:32.630Z,92.90
2022-10-13T03:13:55.246Z,92.90
2022-10-13T03:17:17.692Z,92.90
2022-10-13T03:20:40.056Z,92.90
2022-10-13T03:24:02.186Z,92.90
2022-10-13T03:27:24.364Z,92.90
2022-10-13T03:30:46.495Z,93.00
2022-10-13T03:34:11.680Z,92.90
2022-10-13T03:37:33.930Z,92.90
2022-10-13T03:40:56.250Z,92.90
2022-10-13T03:44:18.386Z,93.00
2022-10-13T03:47:40.725Z,93.00
2022-10-13T03:51:11.080Z,92.90
2022-10-13T03:54:40.109Z,92.90
2022-10-13T03:58:04.031Z,92.90
2022-10-13T04:01:29.199Z,92.80
2022-10-13T04:04:51.477Z,92.90
2022-10-13T04:08:14.437Z,92.90
2022-10-13T04:11:36.849Z,92.90
2022-10-13T04:14:59.085Z,93.00
2022-10-13T04:18:21.662Z,93.00
2022-10-13T04:21:44.206Z,93.10
2022-10-13T04:25:07.135Z,93.00
2022-10-13T04:28:29.652Z,93.10
2022-10-13T04:31:52.050Z,93.00
2022-10-13T04:35:14.198Z,93.00
2022-10-13T04:38:36.431Z,93.00
2022-10-13T04:41:58.532Z,93.00
2022-10-13T04:45:20.769Z,93.10
2022-10-13T04:48:45.073Z,93.10
2022-10-13T04:52:07.661Z,93.10
2022-10-13T04:55:29.766Z,93.10
2022-10-13T04:58:52.033Z,93.10
2022-10-13T05:02:14.129Z,93.10
2022-10-13T05:05:36.728Z,93.10
2022-10-13T05:08:59.502Z,93.00
2022-10-13T05:12:22.085Z,93.00
2022-10-13T05:15:45.265Z,93.10
2022-10-13T05:19:07.406Z,93.10
2022-10-13T05:22:29.732Z,93.20
2022-10-13T05:25:52.145Z,93.20
2022-10-13T05:29:18.266Z,93.30
2022-10-13T05:32:40.543Z,93.30
2022-10-13T05:36:14.442Z,93.40
2022-10-13T05:39:36.590Z,93.40
2022-10-13T05:42:58.726Z,93.50
2022-10-13T05:46:20.922Z,93.70
2022-10-13T05:49:43.110Z,93.90
2022-10-13T05:53:05.497Z,93.70
2022-10-13T05:56:33.440Z,94.10
2022-10-13T06:00:17.015Z,93.80
2022-10-13T06:03:41.965Z,94.70
2022-10-13T06:07:04.369Z,94.80
2022-10-13T06:10:26.749Z,94.80
2022-10-13T06:13:48.930Z,94.90
2022-10-13T06:17:11.138Z,94.80
2022-10-13T06:20:33.997Z,95.20
2022-10-13T06:23:56.720Z,95.20
2022-10-13T06:27:18.840Z,95.30
2022-10-13T06:30:43.495Z,95.20
2022-10-13T06:34:05.660Z,95.20
2022-10-13T06:37:27.811Z,95.20
2022-10-13T06:40:49.960Z,95.20
2022-10-13T06:44:12.197Z,95.40
2022-10-13T06:47:34.434Z,94.40
2022-10-13T06:51:00.475Z,94.20
2022-10-13T06:54:22.617Z,95.10
2022-10-13T06:57:45.012Z,95.20
2022-10-13T07:01:07.345Z,94.60
2022-10-13T07:04:29.642Z,94.50
2022-10-13T07:07:56.058Z,94.60
2022-10-13T07:11:18.618Z,94.70
2022-10-13T07:14:47.121Z,94.50
2022-10-13T07:18:09.239Z,94.40
2022-10-13T07:21:31.703Z,94.50
2022-10-13T07:24:53.906Z,94.40
2022-10-13T07:28:17.069Z,94.70
2022-10-13T07:31:42.257Z,94.60
2022-10-13T07:35:05.211Z,94.70
2022-10-13T07:38:27.301Z,95.10
2022-10-13T07:41:51.209Z,94.60
2022-10-13T07:45:13.697Z,95.20
2022-10-13T07:48:36.285Z,94.80
2022-10-13T07:51:58.429Z,95.20
2022-10-13T07:55:20.554Z,94.90
2022-10-13T07:58:46.165Z,95.20
2022-10-13T08:02:09.811Z,95.50
2022-10-13T08:05:32.157Z,95.50
2022-10-13T08:08:58.230Z,95.50
2022-10-13T08:12:21.242Z,95.50
2022-10-13T08:15:44.627Z,95.60
2022-10-13T08:19:06.789Z,95.60
2022-10-13T08:22:28.905Z,95.60
2022-10-13T08:25:51.424Z,95.60
2022-10-13T08:29:22.036Z,95.60
2022-10-13T08:32:45.492Z,95.60
2022-10-13T08:36:08.386Z,95.60
2022-10-13T08:39:31.001Z,95.60
2022-10-13T08:42:56.738Z,95.60
2022-10-13T08:46:42.069Z,95.80
2022-10-13T08:50:12.345Z,95.70
2022-10-13T08:53:41.068Z,95.80
2022-10-13T08:57:05.193Z,95.80
2022-10-13T09:00:29.446Z,95.80
2022-10-13T09:04:03.917Z,95.80
2022-10-13T09:07:30.116Z,95.90
2022-10-13T09:10:53.178Z,95.90
2022-10-13T09:14:38.564Z,98.10
2022-10-13T09:18:12.206Z,99.20
2022-10-13T09:21:34.377Z,99.90
2022-10-13T09:25:05.084Z,99.90
2022-10-13T09:28:30.251Z,99.90
2022-10-13T09:32:07.029Z,99.90
2022-10-13T09:35:29.141Z,99.90
2022-10-13T09:39:17.060Z,99.90
2022-10-13T09:42:40.331Z,99.90
2022-10-13T09:46:20.097Z,99.90
2022-10-13T09:49:43.892Z,99.90
2022-10-13T09:53:37.763Z,99.90
2022-10-13T09:57:25.484Z,99.90
2022-10-13T10:00:51.267Z,99.90
2022-10-13T10:04:20.291Z,99.90
2022-10-13T10:07:43.110Z,99.90
2022-10-13T10:11:11.722Z,99.90
2022-10-13T10:14:39.150Z,99.90
2022-10-13T10:18:08.749Z,99.90
2022-10-13T10:21:46.306Z,99.90
2022-10-13T10:25:14.650Z,99.90
2022-10-13T10:28:43.011Z,99.90
2022-10-13T10:32:38.926Z,99.90
2022-10-13T10:36:18.842Z,99.90
2022-10-13T10:39:41.047Z,99.90
2022-10-13T10:43:20.871Z,99.90
2022-10-13T10:46:48.030Z,99.90
2022-10-13T10:50:14.898Z,99.90
2022-10-13T10:53:52.828Z,99.90
2022-10-13T10:57:26.842Z,99.90
2022-10-13T11:01:06.926Z,99.90
2022-10-13T11:04:49.292Z,99.90
2022-10-13T11:08:47.467Z,99.90
2022-10-13T11:12:19.955Z,99.90
2022-10-13T11:15:45.564Z,99.90
2022-10-13T11:19:31.904Z,99.90
2022-10-13T11:23:00.090Z,99.90
2022-10-13T11:26:41.582Z,99.90
2022-10-13T11:30:06.058Z,99.90
2022-10-13T11:33:40.165Z,99.90
2022-10-13T11:37:12.686Z,99.90
2022-10-13T11:40:59.653Z,99.90
2022-10-13T11:48:18.912Z,99.90
2022-10-13T11:51:59.639Z,99.90
2022-10-13T11:55:42.729Z,99.90
2022-10-13T11:59:04.882Z,99.90
2022-10-13T12:02:29.111Z,99.90
2022-10-13T12:05:52.076Z,99.90
2022-10-13T12:09:20.236Z,99.90
2022-10-13T12:12:49.689Z,99.90
2022-10-13T12:16:14.221Z,99.90
2022-10-13T12:19:40.245Z,99.90
2022-10-13T12:23:02.424Z,99.90
2022-10-13T12:26:25.743Z,99.90
2022-10-13T12:29:48.122Z,99.90
2022-10-13T12:33:32.659Z,99.90
2022-10-13T12:37:33.538Z,99.90
2022-10-13T12:40:55.790Z,99.90
2022-10-13T12:44:23.906Z,99.90
2022-10-13T12:47:47.141Z,99.90
2022-10-13T12:51:14.250Z,99.90
2022-10-13T12:55:01.229Z,99.90
2022-10-13T12:58:27.009Z,99.90
2022-10-13T13:01:58.479Z,99.90
2022-10-13T13:05:40.616Z,99.90
2022-10-13T13:09:21.747Z,99.90
2022-10-13T13:12:44.787Z,99.90
2022-10-13T13:16:17.238Z,99.90
2022-10-13T13:19:44.377Z,99.90
2022-10-13T13:23:06.478Z,99.90
2022-10-13T13:26:31.844Z,99.90
2022-10-13T13:29:57.980Z,99.90
2022-10-13T13:33:20.234Z,99.90
2022-10-13T13:36:42.451Z,99.90
2022-10-13T13:40:06.693Z,99.90
2022-10-13T13:43:28.827Z,99.90
2022-10-13T13:46:50.999Z,99.90
2022-10-13T13:50:17.908Z,99.90
2022-10-13T13:53:42.616Z,99.90
2022-10-13T13:57:05.015Z,99.90
2022-10-13T14:00:27.674Z,99.90
2022-10-13T14:03:49.905Z,99.90
2022-10-13T14:07:12.411Z,99.90
2022-10-13T14:10:34.560Z,99.90
2022-10-13T14:13:58.094Z,99.90
2022-10-13T14:17:23.133Z,99.90
2022-10-13T14:20:45.325Z,99.90
2022-10-13T14:24:08.024Z,99.90
2022-10-13T14:27:31.129Z,99.90
2022-10-13T14:30:54.930Z,99.90
2022-10-13T14:34:17.237Z,99.90
2022-10-13T14:37:39.867Z,99.90
2022-10-13T14:41:05.474Z,99.90
2022-10-13T14:44:27.678Z,99.90
2022-10-13T14:47:52.493Z,99.90
2022-10-13T14:51:14.706Z,99.90
2022-10-13T14:54:39.061Z,99.90
2022-10-13T14:58:04.591Z,99.90
2022-10-13T15:01:27.659Z,99.90
2022-10-13T15:04:49.805Z,99.90
2022-10-13T15:08:11.970Z,99.90
2022-10-13T15:11:34.368Z,99.90
2022-10-13T15:14:56.501Z,99.90
2022-10-13T15:18:18.700Z,99.90
2022-10-13T15:21:40.915Z,99.90
2022-10-13T15:25:07.521Z,99.90
2022-10-13T15:28:35.236Z,99.90
2022-10-13T15:32:11.960Z,99.90
2022-10-13T15:35:34.073Z,99.90
2022-10-13T15:38:56.173Z,99.90
2022-10-13T15:42:18.453Z,99.90
2022-10-13T15:45:40.968Z,99.90
2022-10-13T15:49:03.045Z,99.90
2022-10-13T15:52:25.835Z,99.90
2022-10-13T15:55:50.162Z,99.90
2022-10-13T15:59:12.330Z,99.90
2022-10-13T16:02:34.753Z,99.90
2022-10-13T16:05:56.853Z,99.90
2022-10-13T16:09:19.042Z,99.90
2022-10-13T16:12:48.415Z,99.90
2022-10-13T16:16:11.835Z,99.90
2022-10-13T16:19:33.953Z,99.90
2022-10-13T16:22:56.087Z,99.90
2022-10-13T16:26:18.677Z,99.90
2022-10-13T16:29:40.862Z,99.90
2022-10-13T16:33:03.064Z,99.90
2022-10-13T16:36:25.397Z,99.90
2022-10-13T16:39:51.503Z,99.90
2022-10-13T16:43:14.237Z,99.90
2022-10-13T16:46:44.384Z,99.90
2022-10-13T16:50:09.607Z,99.90
2022-10-13T16:53:31.969Z,99.90
2022-10-13T16:56:54.251Z,99.90
2022-10-13T17:00:16.568Z,99.90
2022-10-13T17:03:39.520Z,99.90
2022-10-13T17:07:01.653Z,99.90
2022-10-13T17:10:24.364Z,99.90
2022-10-13T17:13:47.849Z,99.90
2022-10-13T17:17:09.990Z,99.90
2022-10-13T17:20:32.101Z,99.90
2022-10-13T17:23:56.159Z,99.90
2022-10-13T17:27:18.564Z,99.90
2022-10-13T17:30:41.167Z,99.90
2022-10-13T17:34:03.352Z,99.90
2022-10-13T17:37:26.414Z,99.90
2022-10-13T17:40:48.536Z,99.90
2022-10-13T17:44:11.648Z,99.90
2022-10-13T17:47:34.571Z,99.90
2022-10-13T17:51:03.956Z,99.90
2022-10-13T17:54:26.190Z,99.90
2022-10-13T17:57:48.778Z,99.90
2022-10-13T18:01:18.592Z,99.90
2022-10-13T18:04:43.323Z,99.90
2022-10-13T18:08:05.505Z,99.90
2022-10-13T18:11:30.519Z,99.90
2022-10-13T18:14:52.919Z,99.90
2022-10-13T18:18:15.160Z,99.90
2022-10-13T18:21:37.293Z,99.90
2022-10-13T18:24:59.398Z,99.90
2022-10-13T18:28:21.585Z,99.90
2022-10-13T18:31:44.285Z,99.90
2022-10-13T18:35:06.954Z,99.90
2022-10-13T18:38:29.135Z,99.90
2022-10-13T18:41:52.172Z,99.90
2022-10-13T18:45:14.842Z,99.90
2022-10-13T18:48:37.045Z,99.90
2022-10-13T18:52:01.106Z,99.90
2022-10-13T18:55:23.268Z,99.90
2022-10-13T18:58:45.519Z,99.90
2022-10-13T19:02:08.879Z,99.90
2022-10-13T19:05:31.044Z,99.90
2022-10-13T19:08:58.471Z,99.90
2022-10-13T19:12:20.641Z,99.90
2022-10-13T19:15:42.954Z,99.90
2022-10-13T19:19:05.393Z,99.90
2022-10-13T19:22:27.522Z,99.90
2022-10-13T19:25:50.134Z,99.90
2022-10-13T19:29:14.686Z,99.90
2022-10-13T19:32:39.465Z,99.90
2022-10-13T19:36:01.577Z,99.90
2022-10-13T19:39:25.794Z,99.90
2022-10-13T19:42:47.963Z,99.90
2022-10-13T19:46:10.714Z,99.90
2022-10-13T19:49:33.049Z,99.90
2022-10-13T19:52:55.197Z,99.90
2022-10-13T19:56:21.281Z,99.90
2022-10-13T19:59:47.558Z,99.90
2022-10-13T20:03:10.120Z,99.90
2022-10-13T20:06:34.352Z,99.90
2022-10-13T20:09:56.496Z,99.90
2022-10-13T20:13:18.881Z,99.90
2022-10-13T20:16:43.243Z,99.90
2022-10-13T20:20:06.577Z,99.90
2022-10-13T20:23:28.695Z,99.90
2022-10-13T20:26:50.885Z,99.90
2022-10-13T20:30:17.492Z,99.90
2022-10-13T20:33:40.282Z,99.90
2022-10-13T20:37:02.506Z,99.90
2022-10-13T20:40:24.650Z,99.90
2022-10-13T20:43:48.445Z,99.90
2022-10-13T20:47:10.571Z,99.90
2022-10-13T20:50:32.842Z,99.90
2022-10-13T20:53:55.051Z,99.90
2022-10-13T20:57:17.155Z,99.90
2022-10-13T21:00:45.219Z,99.90
2022-10-13T21:04:07.530Z,99.90
2022-10-13T21:07:29.681Z,99.90
2022-10-13T21:10:51.807Z,99.90
2022-10-13T21:14:17.192Z,99.90
2022-10-13T21:17:42.348Z,99.90
2022-10-13T21:21:10.266Z,99.90
2022-10-13T21:24:32.450Z,99.90
2022-10-13T21:27:58.755Z,99.90
2022-10-13T21:31:22.634Z,99.90
2022-10-13T21:34:46.920Z,99.90
2022-10-13T21:38:09.070Z,99.90
2022-10-13T21:41:32.280Z,99.90
2022-10-13T21:44:54.509Z,99.90
2022-10-13T21:48:16.675Z,99.90
2022-10-13T21:51:40.086Z,99.90
2022-10-13T21:55:02.975Z,99.90
2022-10-13T21:58:25.098Z,99.90
2022-10-13T22:01:47.236Z,99.90
2022-10-13T22:05:09.577Z,99.90
2022-10-13T22:08:38.325Z,99.90
2022-10-13T22:12:09.226Z,99.90
2022-10-13T22:15:35.027Z,99.90
2022-10-13T22:18:58.263Z,99.90
2022-10-13T22:22:20.462Z,99.90
2022-10-13T22:25:47.312Z,99.90
2022-10-13T22:29:12.890Z,99.90
2022-10-13T22:32:35.617Z,99.90
2022-10-13T22:35:57.771Z,99.90
2022-10-13T22:39:20.292Z,99.90
2022-10-13T22:42:42.628Z,99.90
2022-10-13T22:46:05.154Z,99.90
2022-10-13T22:49:27.353Z,99.90
2022-10-13T22:52:50.033Z,99.90
2022-10-13T22:56:15.251Z,99.90
2022-10-13T22:59:37.366Z,99.90
2022-10-13T23:02:59.509Z,99.90
2022-10-13T23:06:23.798Z,99.90
2022-10-13T23:09:46.010Z,99.90
2022-10-13T23:13:08.238Z,99.90
2022-10-13T23:16:30.693Z,99.90
2022-10-13T23:19:53.690Z,99.90
2022-10-13T23:23:15.838Z,99.90
2022-10-13T23:26:37.993Z,99.90
2022-10-13T23:30:00.161Z,99.90
2022-10-13T23:33:22.410Z,99.90
2022-10-13T23:36:44.521Z,99.90
2022-10-13T23:40:07.115Z,99.90
2022-10-13T23:43:29.231Z,99.90
2022-10-13T23:46:51.364Z,99.90
2022-10-13T23:50:13.550Z,99.90
2022-10-13T23:53:37.372Z,99.90
2022-10-13T23:56:59.522Z,99.90
